createdAt,value
2017-06-18T00:01:10.545Z,1019.09
2017-06-18T00:02:10.479Z,1019.09
2017-06-18T00:03:10.415Z,1019.11
2017-06-18T00:04:10.352Z,1019.1
2017-06-18T00:05:10.290Z,1019.1
2017-06-18T00:06:10.228Z,1019.07
2017-06-18T00:07:10.165Z,1019.08
2017-06-18T00:08:10.102Z,1019.1
2017-06-18T00:09:10.040Z,1019.06
2017-06-18T00:10:09.978Z,1019.1
2017-06-18T00:11:09.914Z,1019.11
2017-06-18T00:12:09.852Z,1019.08
2017-06-18T00:13:09.791Z,1019.08
2017-06-18T00:14:09.728Z,1019.11
2017-06-18T00:15:09.665Z,1019.09
2017-06-18T00:16:09.602Z,1019.11
2017-06-18T00:17:09.541Z,1019.1
2017-06-18T00:18:09.478Z,1019.11
2017-06-18T00:19:09.416Z,1019.12
2017-06-18T00:20:09.353Z,1019.1
2017-06-18T00:21:09.290Z,1019.1
2017-06-18T00:22:09.228Z,1019.14
2017-06-18T00:23:09.165Z,1019.06
2017-06-18T00:24:09.102Z,1019.09
2017-06-18T00:25:09.040Z,1019.07
2017-06-18T00:26:08.978Z,1019.1
2017-06-18T00:27:08.915Z,1019.1
2017-06-18T00:28:08.852Z,1019.08
2017-06-18T00:29:08.790Z,1019.07
2017-06-18T00:30:08.728Z,1019.09
2017-06-18T00:31:08.665Z,1019.06
2017-06-18T00:32:08.604Z,1019.06
2017-06-18T00:33:08.540Z,1019.03
2017-06-18T00:34:08.477Z,1019
2017-06-18T00:35:08.415Z,1019.04
2017-06-18T00:36:08.353Z,1019.03
2017-06-18T00:37:08.291Z,1019.02
2017-06-18T00:38:08.228Z,1019.04
2017-06-18T00:39:08.165Z,1019.04
2017-06-18T00:40:08.104Z,1019.03
2017-06-18T00:41:08.040Z,1019.06
2017-06-18T00:42:07.978Z,1019.1
2017-06-18T00:43:07.916Z,1019.07
2017-06-18T00:44:07.853Z,1019.07
2017-06-18T00:45:07.791Z,1019.04
2017-06-18T00:46:07.728Z,1019.05
2017-06-18T00:47:07.667Z,1019.05
2017-06-18T00:48:07.603Z,1019.01
2017-06-18T00:49:07.540Z,1019.05
2017-06-18T00:50:07.478Z,1019.05
2017-06-18T00:51:07.416Z,1019.04
2017-06-18T00:52:07.353Z,1019.07
2017-06-18T00:53:07.291Z,1019.05
2017-06-18T00:54:07.228Z,1019.06
2017-06-18T00:55:07.166Z,1019.09
2017-06-18T00:56:07.103Z,1019.05
2017-06-18T00:57:07.041Z,1019.1
2017-06-18T00:58:06.980Z,1019.08
2017-06-18T00:59:06.916Z,1019.11
2017-06-18T01:00:06.858Z,1019.09
2017-06-18T01:01:06.790Z,1019.08
2017-06-18T01:02:06.729Z,1019.07
2017-06-18T01:03:06.667Z,1019.06
2017-06-18T01:04:06.602Z,1019.1
2017-06-18T01:05:06.542Z,1019.08
2017-06-18T01:06:06.478Z,1019.1
2017-06-18T01:07:06.416Z,1019.11
2017-06-18T01:08:06.353Z,1019.11
2017-06-18T01:09:06.291Z,1019.07
2017-06-18T01:10:06.229Z,1019.09
2017-06-18T01:11:06.165Z,1019.12
2017-06-18T01:12:06.104Z,1019.11
2017-06-18T01:13:06.042Z,1019.09
2017-06-18T01:14:05.979Z,1019.12
2017-06-18T01:15:05.917Z,1019.12
2017-06-18T01:16:05.854Z,1019.13
2017-06-18T01:17:05.791Z,1019.11
2017-06-18T01:18:05.729Z,1019.15
2017-06-18T01:19:05.672Z,1019.12
2017-06-18T01:20:05.605Z,1019.15
2017-06-18T01:21:05.542Z,1019.11
2017-06-18T01:22:05.481Z,1019.16
2017-06-18T01:23:05.418Z,1019.18
2017-06-18T01:24:05.355Z,1019.14
2017-06-18T01:25:05.295Z,1019.16
2017-06-18T01:26:05.230Z,1019.14
2017-06-18T01:27:05.167Z,1019.15
2017-06-18T01:28:05.104Z,1019.18
2017-06-18T01:29:05.042Z,1019.16
2017-06-18T01:30:04.981Z,1019.19
2017-06-18T01:31:04.917Z,1019.18
2017-06-18T01:32:04.854Z,1019.14
2017-06-18T01:33:04.793Z,1019.18
2017-06-18T01:34:04.730Z,1019.18
2017-06-18T01:35:04.668Z,1019.19
2017-06-18T01:36:04.606Z,1019.23
2017-06-18T01:37:04.543Z,1019.22
2017-06-18T01:38:04.481Z,1019.26
2017-06-18T01:39:04.418Z,1019.26
2017-06-18T01:40:04.356Z,1019.3
2017-06-18T01:41:04.294Z,1019.29
2017-06-18T01:42:04.232Z,1019.25
2017-06-18T01:43:04.169Z,1019.29
2017-06-18T01:44:04.106Z,1019.32
2017-06-18T01:45:04.044Z,1019.32
2017-06-18T01:46:03.981Z,1019.31
2017-06-18T01:47:03.919Z,1019.29
2017-06-18T01:48:03.858Z,1019.3
2017-06-18T01:49:03.794Z,1019.3
2017-06-18T01:50:03.732Z,1019.27
2017-06-18T01:51:03.669Z,1019.3
2017-06-18T01:52:03.607Z,1019.31
2017-06-18T01:53:03.545Z,1019.31
2017-06-18T01:54:03.480Z,1019.33
2017-06-18T01:55:03.418Z,1019.36
2017-06-18T01:56:03.357Z,1019.34
2017-06-18T01:57:03.295Z,1019.32
2017-06-18T01:58:03.231Z,1019.35
2017-06-18T01:59:03.169Z,1019.32
2017-06-18T02:00:03.109Z,1019.31
2017-06-18T02:01:03.045Z,1019.31
2017-06-18T02:02:02.983Z,1019.28
2017-06-18T02:03:02.919Z,1019.29
2017-06-18T02:04:02.859Z,1019.3
2017-06-18T02:05:02.794Z,1019.32
2017-06-18T02:06:02.732Z,1019.32
2017-06-18T02:07:02.670Z,1019.33
2017-06-18T02:08:02.606Z,1019.32
2017-06-18T02:09:02.545Z,1019.29
2017-06-18T02:10:02.483Z,1019.33
2017-06-18T02:11:02.420Z,1019.32
2017-06-18T02:12:02.357Z,1019.32
2017-06-18T02:13:02.294Z,1019.32
2017-06-18T02:14:02.233Z,1019.37
2017-06-18T02:15:02.171Z,1019.37
2017-06-18T02:16:02.109Z,1019.35
2017-06-18T02:17:02.045Z,1019.36
2017-06-18T02:18:01.984Z,1019.38
2017-06-18T02:19:01.920Z,1019.37
2017-06-18T02:20:01.858Z,1019.4
2017-06-18T02:21:01.796Z,1019.39
2017-06-18T02:22:01.734Z,1019.37
2017-06-18T02:23:01.671Z,1019.37
2017-06-18T02:24:01.607Z,1019.38
2017-06-18T02:25:01.546Z,1019.39
2017-06-18T02:26:01.483Z,1019.37
2017-06-18T02:27:01.422Z,1019.37
2017-06-18T02:28:01.358Z,1019.34
2017-06-18T02:29:01.297Z,1019.33
2017-06-18T02:30:01.233Z,1019.29
2017-06-18T02:31:01.170Z,1019.33
2017-06-18T02:32:01.113Z,1019.33
2017-06-18T02:33:01.047Z,1019.33
2017-06-18T02:34:00.983Z,1019.34
2017-06-18T02:35:00.921Z,1019.35
2017-06-18T02:36:00.860Z,1019.38
2017-06-18T02:37:00.796Z,1019.35
2017-06-18T02:38:00.734Z,1019.38
2017-06-18T02:39:00.672Z,1019.39
2017-06-18T02:40:00.608Z,1019.41
2017-06-18T02:41:00.545Z,1019.39
2017-06-18T02:42:00.484Z,1019.4
2017-06-18T02:43:00.421Z,1019.39
2017-06-18T02:44:00.359Z,1019.44
2017-06-18T02:45:00.297Z,1019.41
2017-06-18T02:46:00.234Z,1019.43
2017-06-18T02:47:00.171Z,1019.43
2017-06-18T02:48:00.110Z,1019.44
2017-06-18T02:49:00.046Z,1019.42
2017-06-18T02:49:59.986Z,1019.42
2017-06-18T02:50:59.937Z,1019.4
2017-06-18T02:51:59.860Z,1019.42
2017-06-18T02:52:59.796Z,1019.39
2017-06-18T02:53:59.733Z,1019.41
2017-06-18T02:54:59.672Z,1019.4
2017-06-18T02:55:59.608Z,1019.38
2017-06-18T02:56:59.547Z,1019.42
2017-06-18T02:57:59.485Z,1019.42
2017-06-18T02:58:59.423Z,1019.47
2017-06-18T02:59:59.358Z,1019.48
2017-06-18T03:00:59.297Z,1019.42
2017-06-18T03:01:59.234Z,1019.42
2017-06-18T03:02:59.172Z,1019.42
2017-06-18T03:03:59.110Z,1019.44
2017-06-18T03:04:59.047Z,1019.42
2017-06-18T03:05:58.984Z,1019.39
2017-06-18T03:06:58.922Z,1019.39
2017-06-18T03:07:58.860Z,1019.42
2017-06-18T03:08:58.798Z,1019.39
2017-06-18T03:09:58.735Z,1019.37
2017-06-18T03:10:58.675Z,1019.41
2017-06-18T03:11:58.611Z,1019.4
2017-06-18T03:12:58.549Z,1019.38
2017-06-18T03:13:58.487Z,1019.35
2017-06-18T03:14:58.423Z,1019.33
2017-06-18T03:15:58.362Z,1019.36
2017-06-18T03:16:58.312Z,1019.38
2017-06-18T03:17:58.236Z,1019.38
2017-06-18T03:18:58.174Z,1019.37
2017-06-18T03:19:58.112Z,1019.39
2017-06-18T03:20:58.049Z,1019.36
2017-06-18T03:21:57.988Z,1019.35
2017-06-18T03:22:57.924Z,1019.36
2017-06-18T03:23:57.862Z,1019.37
2017-06-18T03:24:57.798Z,1019.39
2017-06-18T03:25:57.737Z,1019.4
2017-06-18T03:26:57.673Z,1019.38
2017-06-18T03:27:57.611Z,1019.38
2017-06-18T03:28:57.548Z,1019.36
2017-06-18T03:29:57.487Z,1019.4
2017-06-18T03:30:57.424Z,1019.32
2017-06-18T03:31:57.361Z,1019.39
2017-06-18T03:32:57.299Z,1019.4
2017-06-18T03:33:57.236Z,1019.38
2017-06-18T03:34:57.175Z,1019.35
2017-06-18T03:35:57.110Z,1019.38
2017-06-18T03:36:57.049Z,1019.4
2017-06-18T03:37:56.987Z,1019.34
2017-06-18T03:38:56.924Z,1019.38
2017-06-18T03:39:56.860Z,1019.38
2017-06-18T03:40:56.800Z,1019.43
2017-06-18T03:41:56.737Z,1019.44
2017-06-18T03:42:56.674Z,1019.43
2017-06-18T03:43:56.612Z,1019.43
2017-06-18T03:44:56.549Z,1019.41
2017-06-18T03:45:56.487Z,1019.39
2017-06-18T03:46:56.424Z,1019.39
2017-06-18T03:47:56.360Z,1019.44
2017-06-18T03:48:56.300Z,1019.42
2017-06-18T03:49:56.239Z,1019.4
2017-06-18T03:50:56.175Z,1019.42
2017-06-18T03:51:56.114Z,1019.45
2017-06-18T03:52:56.050Z,1019.44
2017-06-18T03:53:55.987Z,1019.39
2017-06-18T03:54:55.925Z,1019.4
2017-06-18T03:55:55.863Z,1019.4
2017-06-18T03:56:55.801Z,1019.39
2017-06-18T03:57:55.738Z,1019.41
2017-06-18T03:58:55.675Z,1019.41
2017-06-18T03:59:55.614Z,1019.4
2017-06-18T04:00:55.551Z,1019.39
2017-06-18T04:01:55.487Z,1019.41
2017-06-18T04:02:55.424Z,1019.4
2017-06-18T04:03:55.368Z,1019.41
2017-06-18T04:04:55.300Z,1019.44
2017-06-18T04:05:55.238Z,1019.42
2017-06-18T04:06:55.175Z,1019.46
2017-06-18T04:07:55.113Z,1019.42
2017-06-18T04:08:55.049Z,1019.45
2017-06-18T04:09:54.989Z,1019.44
2017-06-18T04:10:54.926Z,1019.45
2017-06-18T04:11:54.864Z,1019.45
2017-06-18T04:12:54.798Z,1019.48
2017-06-18T04:13:54.738Z,1019.53
2017-06-18T04:14:54.677Z,1019.54
2017-06-18T04:15:54.614Z,1019.56
2017-06-18T04:16:54.550Z,1019.57
2017-06-18T04:17:54.487Z,1019.57
2017-06-18T04:18:54.426Z,1019.54
2017-06-18T04:19:54.364Z,1019.59
2017-06-18T04:20:54.301Z,1019.6
2017-06-18T04:21:54.239Z,1019.6
2017-06-18T04:22:54.215Z,1019.65
2017-06-18T04:23:54.113Z,1019.62
2017-06-18T04:24:54.050Z,1019.66
2017-06-18T04:25:53.990Z,1019.67
2017-06-18T04:26:53.926Z,1019.63
2017-06-18T04:27:53.862Z,1019.66
2017-06-18T04:28:53.800Z,1019.6
2017-06-18T04:29:53.740Z,1019.69
2017-06-18T04:30:53.676Z,1019.7
2017-06-18T04:31:53.614Z,1019.71
2017-06-18T04:32:53.550Z,1019.67
2017-06-18T04:33:53.489Z,1019.7
2017-06-18T04:34:53.426Z,1019.64
2017-06-18T04:35:53.364Z,1019.67
2017-06-18T04:36:53.302Z,1019.64
2017-06-18T04:37:53.239Z,1019.64
2017-06-18T04:38:53.176Z,1019.65
2017-06-18T04:39:53.113Z,1019.67
2017-06-18T04:40:53.050Z,1019.69
2017-06-18T04:41:52.988Z,1019.73
2017-06-18T04:42:52.927Z,1019.75
2017-06-18T04:43:52.865Z,1019.72
2017-06-18T04:44:52.806Z,1019.73
2017-06-18T04:45:52.741Z,1019.76
2017-06-18T04:46:52.677Z,1019.78
2017-06-18T04:47:52.616Z,1019.72
2017-06-18T04:48:52.553Z,1019.73
2017-06-18T04:49:52.490Z,1019.75
2017-06-18T04:50:52.428Z,1019.75
2017-06-18T04:51:52.366Z,1019.75
2017-06-18T04:52:52.302Z,1019.78
2017-06-18T04:53:52.240Z,1019.75
2017-06-18T04:54:52.179Z,1019.76
2017-06-18T04:55:52.115Z,1019.72
2017-06-18T04:56:52.053Z,1019.73
2017-06-18T04:57:51.990Z,1019.8
2017-06-18T04:58:51.928Z,1019.76
2017-06-18T04:59:51.865Z,1019.75
2017-06-18T05:00:51.803Z,1019.76
2017-06-18T05:01:51.743Z,1019.81
2017-06-18T05:02:51.679Z,1019.83
2017-06-18T05:03:51.616Z,1019.88
2017-06-18T05:04:51.553Z,1019.86
2017-06-18T05:05:51.491Z,1019.89
2017-06-18T05:06:51.429Z,1019.89
2017-06-18T05:07:51.365Z,1019.87
2017-06-18T05:08:51.304Z,1019.86
2017-06-18T05:09:51.243Z,1019.92
2017-06-18T05:10:51.178Z,1019.91
2017-06-18T05:11:51.116Z,1019.91
2017-06-18T05:12:51.054Z,1019.91
2017-06-18T05:13:50.993Z,1019.89
2017-06-18T05:14:50.929Z,1019.9
2017-06-18T05:15:50.867Z,1019.87
2017-06-18T05:16:50.805Z,1019.86
2017-06-18T05:17:50.740Z,1019.87
2017-06-18T05:18:50.679Z,1019.87
2017-06-18T05:19:50.620Z,1019.88
2017-06-18T05:20:50.554Z,1019.9
2017-06-18T05:21:50.491Z,1019.93
2017-06-18T05:22:50.431Z,1019.92
2017-06-18T05:23:50.367Z,1019.93
2017-06-18T05:24:50.306Z,1019.93
2017-06-18T05:25:50.242Z,1019.91
2017-06-18T05:26:50.181Z,1019.94
2017-06-18T05:27:50.117Z,1019.94
2017-06-18T05:28:50.054Z,1019.93
2017-06-18T05:29:49.993Z,1019.92
2017-06-18T05:30:49.930Z,1019.99
2017-06-18T05:31:49.868Z,1019.97
2017-06-18T05:32:49.805Z,1019.99
2017-06-18T05:33:49.743Z,1019.97
2017-06-18T05:34:49.680Z,1019.98
2017-06-18T05:35:49.619Z,1019.97
2017-06-18T05:36:49.555Z,1019.98
2017-06-18T05:37:49.493Z,1019.99
2017-06-18T05:38:49.431Z,1019.97
2017-06-18T05:39:49.369Z,1019.99
2017-06-18T05:40:49.306Z,1020.02
2017-06-18T05:41:49.243Z,1020.01
2017-06-18T05:42:49.181Z,1020.06
2017-06-18T05:43:49.118Z,1020.03
2017-06-18T05:44:49.058Z,1020.02
2017-06-18T05:45:48.994Z,1020.06
2017-06-18T05:46:48.932Z,1020.04
2017-06-18T05:47:48.869Z,1020.06
2017-06-18T05:48:48.807Z,1020.05
2017-06-18T05:49:48.746Z,1020.06
2017-06-18T05:50:48.682Z,1020.03
2017-06-18T05:51:48.619Z,1020.03
2017-06-18T05:52:48.558Z,1019.99
2017-06-18T05:53:48.495Z,1020.01
2017-06-18T05:54:48.431Z,1020.02
2017-06-18T05:55:48.370Z,1020.01
2017-06-18T05:56:48.307Z,1020.04
2017-06-18T05:57:48.245Z,1019.99
2017-06-18T05:58:48.181Z,1020.09
2017-06-18T05:59:48.120Z,1020.03
2017-06-18T06:00:48.059Z,1020.06
2017-06-18T06:01:47.995Z,1020.05
2017-06-18T06:02:47.934Z,1020.04
2017-06-18T06:03:47.870Z,1020.09
2017-06-18T06:04:47.809Z,1020.05
2017-06-18T06:05:47.746Z,1020.03
2017-06-18T06:06:47.683Z,1020.04
2017-06-18T06:07:47.621Z,1020.01
2017-06-18T06:08:47.558Z,1019.98
2017-06-18T06:09:47.496Z,1019.95
2017-06-18T06:10:47.433Z,1019.98
2017-06-18T06:11:47.372Z,1019.96
2017-06-18T06:12:47.312Z,1019.98
2017-06-18T06:13:47.246Z,1019.98
2017-06-18T06:14:47.184Z,1019.99
2017-06-18T06:15:47.122Z,1019.97
2017-06-18T06:16:47.058Z,1019.95
2017-06-18T06:17:46.997Z,1019.98
2017-06-18T06:18:46.934Z,1019.97
2017-06-18T06:19:46.872Z,1019.96
2017-06-18T06:20:46.810Z,1019.91
2017-06-18T06:21:46.750Z,1019.9
2017-06-18T06:22:46.687Z,1019.91
2017-06-18T06:23:46.623Z,1019.87
2017-06-18T06:24:46.562Z,1019.88
2017-06-18T06:25:46.498Z,1019.89
2017-06-18T06:26:46.437Z,1019.94
2017-06-18T06:27:46.373Z,1019.94
2017-06-18T06:28:46.310Z,1019.94
2017-06-18T06:29:46.249Z,1019.94
2017-06-18T06:30:46.186Z,1019.96
2017-06-18T06:31:46.123Z,1019.93
2017-06-18T06:32:46.061Z,1019.96
2017-06-18T06:33:45.999Z,1019.96
2017-06-18T06:34:45.937Z,1019.95
2017-06-18T06:35:45.875Z,1020
2017-06-18T06:36:45.812Z,1019.97
2017-06-18T06:37:45.750Z,1019.99
2017-06-18T06:38:45.687Z,1020.04
2017-06-18T06:39:45.626Z,1020.02
2017-06-18T06:40:45.563Z,1020.03
2017-06-18T06:41:45.504Z,1020
2017-06-18T06:42:45.437Z,1020.03
2017-06-18T06:43:45.375Z,1020.02
2017-06-18T06:44:45.313Z,1020.01
2017-06-18T06:45:45.251Z,1020.02
2017-06-18T06:46:45.188Z,1020.03
2017-06-18T06:47:45.126Z,1020.01
2017-06-18T06:48:45.064Z,1020.02
2017-06-18T06:49:45.007Z,1019.99
2017-06-18T06:50:44.939Z,1020.01
2017-06-18T06:51:44.877Z,1019.99
2017-06-18T06:52:44.813Z,1020.03
2017-06-18T06:53:44.750Z,1020
2017-06-18T06:54:44.698Z,1020
2017-06-18T06:55:44.627Z,1020.03
2017-06-18T06:56:44.565Z,1020.03
2017-06-18T06:57:44.502Z,1020.06
2017-06-18T06:58:44.440Z,1020.07
2017-06-18T06:59:44.377Z,1020.06
2017-06-18T07:00:44.314Z,1020.05
2017-06-18T07:01:44.253Z,1020.07
2017-06-18T07:02:44.190Z,1020.09
2017-06-18T07:03:44.127Z,1020.13
2017-06-18T07:04:44.065Z,1020.13
2017-06-18T07:05:44.002Z,1020.13
2017-06-18T07:06:43.941Z,1020.12
2017-06-18T07:07:43.878Z,1020.12
2017-06-18T07:08:43.816Z,1020.11
2017-06-18T07:09:43.754Z,1020.13
2017-06-18T07:10:43.692Z,1020.17
2017-06-18T07:11:43.634Z,1020.17
2017-06-18T07:12:43.567Z,1020.18
2017-06-18T07:13:43.505Z,1020.18
2017-06-18T07:14:43.441Z,1020.19
2017-06-18T07:15:43.380Z,1020.2
2017-06-18T07:16:43.317Z,1020.17
2017-06-18T07:17:43.255Z,1020.16
2017-06-18T07:18:43.192Z,1020.18
2017-06-18T07:19:43.129Z,1020.2
2017-06-18T07:20:43.068Z,1020.21
2017-06-18T07:21:43.005Z,1020.21
2017-06-18T07:22:42.942Z,1020.22
2017-06-18T07:23:42.880Z,1020.16
2017-06-18T07:24:42.818Z,1020.25
2017-06-18T07:25:42.755Z,1020.21
2017-06-18T07:26:42.693Z,1020.22
2017-06-18T07:27:42.631Z,1020.24
2017-06-18T07:28:42.570Z,1020.25
2017-06-18T07:29:42.506Z,1020.26
2017-06-18T07:30:42.444Z,1020.24
2017-06-18T07:31:42.382Z,1020.26
2017-06-18T07:32:42.320Z,1020.27
2017-06-18T07:33:42.256Z,1020.22
2017-06-18T07:34:42.195Z,1020.24
2017-06-18T07:35:42.133Z,1020.26
2017-06-18T07:36:42.070Z,1020.24
2017-06-18T07:37:42.007Z,1020.3
2017-06-18T07:38:41.946Z,1020.32
2017-06-18T07:39:41.882Z,1020.32
2017-06-18T07:40:41.819Z,1020.32
2017-06-18T07:41:41.759Z,1020.3
2017-06-18T07:42:41.696Z,1020.32
2017-06-18T07:43:41.634Z,1020.32
2017-06-18T07:44:41.571Z,1020.3
2017-06-18T07:45:41.510Z,1020.29
2017-06-18T07:46:41.447Z,1020.28
2017-06-18T07:47:41.383Z,1020.29
2017-06-18T07:48:41.323Z,1020.3
2017-06-18T07:49:41.261Z,1020.28
2017-06-18T07:50:41.199Z,1020.28
2017-06-18T07:51:41.135Z,1020.3
2017-06-18T07:52:41.073Z,1020.34
2017-06-18T07:53:41.010Z,1020.3
2017-06-18T07:54:40.948Z,1020.31
2017-06-18T07:55:40.888Z,1020.25
2017-06-18T07:56:40.824Z,1020.24
2017-06-18T07:57:40.762Z,1020.23
2017-06-18T07:58:40.700Z,1020.3
2017-06-18T07:59:40.636Z,1020.31
2017-06-18T08:00:40.576Z,1020.32
2017-06-18T08:01:40.513Z,1020.24
2017-06-18T08:02:40.450Z,1020.32
2017-06-18T08:03:40.388Z,1020.28
2017-06-18T08:04:40.326Z,1020.29
2017-06-18T08:05:40.263Z,1020.29
2017-06-18T08:06:40.201Z,1020.26
2017-06-18T08:07:40.138Z,1020.23
2017-06-18T08:08:40.077Z,1020.28
2017-06-18T08:09:40.014Z,1020.25
2017-06-18T08:10:39.951Z,1020.31
2017-06-18T08:11:39.891Z,1020.36
2017-06-18T08:12:39.827Z,1020.29
2017-06-18T08:13:39.765Z,1020.29
2017-06-18T08:14:39.705Z,1020.29
2017-06-18T08:15:39.641Z,1020.32
2017-06-18T08:16:39.577Z,1020.34
2017-06-18T08:17:39.530Z,1020.33
2017-06-18T08:18:39.453Z,1020.37
2017-06-18T08:19:39.392Z,1020.31
2017-06-18T08:20:39.331Z,1020.31
2017-06-18T08:21:39.266Z,1020.27
2017-06-18T08:22:39.205Z,1020.29
2017-06-18T08:23:39.141Z,1020.27
2017-06-18T08:24:39.079Z,1020.3
2017-06-18T08:25:39.017Z,1020.27
2017-06-18T08:26:38.956Z,1020.28
2017-06-18T08:27:38.892Z,1020.26
2017-06-18T08:28:38.830Z,1020.25
2017-06-18T08:29:38.768Z,1020.23
2017-06-18T08:30:38.706Z,1020.22
2017-06-18T08:31:38.643Z,1020.21
2017-06-18T08:32:38.581Z,1020.21
2017-06-18T08:33:38.519Z,1020.21
2017-06-18T08:34:38.457Z,1020.26
2017-06-18T08:35:38.394Z,1020.28
2017-06-18T08:36:38.332Z,1020.28
2017-06-18T08:37:38.270Z,1020.31
2017-06-18T08:38:38.207Z,1020.3
2017-06-18T08:39:38.146Z,1020.27
2017-06-18T08:40:38.083Z,1020.27
2017-06-18T08:41:38.021Z,1020.25
2017-06-18T08:42:37.960Z,1020.26
2017-06-18T08:43:37.897Z,1020.25
2017-06-18T08:44:37.834Z,1020.25
2017-06-18T08:45:37.772Z,1020.2
2017-06-18T08:46:37.710Z,1020.18
2017-06-18T08:47:37.648Z,1020.16
2017-06-18T08:48:37.586Z,1020.15
2017-06-18T08:49:37.528Z,1020.19
2017-06-18T08:50:37.464Z,1020.19
2017-06-18T08:51:37.398Z,1020.16
2017-06-18T08:52:37.336Z,1020.16
2017-06-18T08:53:37.275Z,1020.15
2017-06-18T08:54:37.212Z,1020.15
2017-06-18T08:55:37.150Z,1020.18
2017-06-18T08:56:37.089Z,1020.15
2017-06-18T08:57:37.025Z,1020.16
2017-06-18T08:58:36.963Z,1020.18
2017-06-18T08:59:36.901Z,1020.15
2017-06-18T09:00:36.988Z,1020.21
2017-06-18T09:01:36.775Z,1020.21
2017-06-18T09:02:36.714Z,1020.21
2017-06-18T09:03:36.651Z,1020.22
2017-06-18T09:04:36.589Z,1020.2
2017-06-18T09:05:36.528Z,1020.15
2017-06-18T09:06:36.464Z,1020.15
2017-06-18T09:07:36.403Z,1020.14
2017-06-18T09:08:36.340Z,1020.14
2017-06-18T09:09:36.278Z,1020.19
2017-06-18T09:10:36.216Z,1020.19
2017-06-18T09:11:36.154Z,1020.18
2017-06-18T09:12:36.091Z,1020.18
2017-06-18T09:13:36.029Z,1020.2
2017-06-18T09:14:35.967Z,1020.2
2017-06-18T09:15:36.205Z,1020.17
2017-06-18T09:16:35.843Z,1020.15
2017-06-18T09:17:35.780Z,1020.18
2017-06-18T09:18:35.718Z,1020.18
2017-06-18T09:19:35.655Z,1020.17
2017-06-18T09:20:35.607Z,1020.14
2017-06-18T09:21:35.533Z,1020.21
2017-06-18T09:22:35.468Z,1020.16
2017-06-18T09:23:35.406Z,1020.08
2017-06-18T09:24:35.345Z,1020.13
2017-06-18T09:25:35.283Z,1020.12
2017-06-18T09:26:35.220Z,1020.1
2017-06-18T09:27:35.158Z,1020.11
2017-06-18T09:28:35.096Z,1020.04
2017-06-18T09:29:35.034Z,1020.1
2017-06-18T09:30:34.972Z,1020.1
2017-06-18T09:31:34.911Z,1020.13
2017-06-18T09:32:34.848Z,1020.1
2017-06-18T09:33:34.785Z,1020.09
2017-06-18T09:34:34.723Z,1020.11
2017-06-18T09:35:34.662Z,1020.1
2017-06-18T09:36:34.599Z,1020.08
2017-06-18T09:37:34.536Z,1020.05
2017-06-18T09:38:34.476Z,1020.04
2017-06-18T09:39:34.413Z,1020.05
2017-06-18T09:40:34.349Z,1019.98
2017-06-18T09:41:34.288Z,1019.99
2017-06-18T09:42:34.226Z,1020.02
2017-06-18T09:43:34.164Z,1020.04
2017-06-18T09:44:34.101Z,1020.06
2017-06-18T09:45:34.039Z,1020.08
2017-06-18T09:46:33.977Z,1020.05
2017-06-18T09:47:33.915Z,1020.05
2017-06-18T09:48:33.852Z,1020.1
2017-06-18T09:49:33.792Z,1020.03
2017-06-18T09:50:33.729Z,1020.06
2017-06-18T09:51:33.666Z,1020.03
2017-06-18T09:52:33.603Z,1020.02
2017-06-18T09:53:33.542Z,1020
2017-06-18T09:54:33.479Z,1020.03
2017-06-18T09:55:33.426Z,1020.06
2017-06-18T09:56:33.356Z,1020.04
2017-06-18T09:57:33.293Z,1020.04
2017-06-18T09:58:33.231Z,1020.02
2017-06-18T09:59:33.168Z,1020.03
2017-06-18T10:00:33.329Z,1020.01
2017-06-18T10:01:33.045Z,1019.99
2017-06-18T10:02:32.980Z,1020.02
2017-06-18T10:03:32.920Z,1019.97
2017-06-18T10:04:32.858Z,1019.93
2017-06-18T10:05:32.795Z,1019.97
2017-06-18T10:06:32.733Z,1019.94
2017-06-18T10:07:32.671Z,1019.94
2017-06-18T10:08:33.817Z,1019.91
2017-06-18T10:09:32.547Z,1019.96
2017-06-18T10:10:32.484Z,1019.92
2017-06-18T10:11:32.422Z,1019.95
2017-06-18T10:12:32.360Z,1019.97
2017-06-18T10:13:32.297Z,1019.92
2017-06-18T10:14:32.234Z,1019.87
2017-06-18T10:15:32.174Z,1019.86
2017-06-18T10:16:32.111Z,1019.88
2017-06-18T10:17:32.049Z,1019.91
2017-06-18T10:18:31.986Z,1019.87
2017-06-18T10:19:31.925Z,1019.88
2017-06-18T10:20:31.865Z,1019.88
2017-06-18T10:21:31.800Z,1019.89
2017-06-18T10:22:31.739Z,1019.93
2017-06-18T10:23:31.878Z,1019.87
2017-06-18T10:24:31.613Z,1019.87
2017-06-18T10:25:31.551Z,1019.91
2017-06-18T10:26:31.489Z,1019.89
2017-06-18T10:27:31.427Z,1019.84
2017-06-18T10:28:31.365Z,1019.85
2017-06-18T10:29:31.302Z,1019.87
2017-06-18T10:30:31.241Z,1019.84
2017-06-18T10:31:31.179Z,1019.85
2017-06-18T10:32:31.117Z,1019.89
2017-06-18T10:33:31.055Z,1019.88
2017-06-18T10:34:30.991Z,1019.86
2017-06-18T10:35:30.929Z,1019.83
2017-06-18T10:36:30.866Z,1019.83
2017-06-18T10:37:30.806Z,1019.87
2017-06-18T10:38:30.743Z,1019.86
2017-06-18T10:39:30.681Z,1019.85
2017-06-18T10:40:30.619Z,1019.82
2017-06-18T10:41:30.557Z,1019.88
2017-06-18T10:42:30.495Z,1019.87
2017-06-18T10:43:30.432Z,1019.85
2017-06-18T10:44:30.369Z,1019.87
2017-06-18T10:45:30.309Z,1019.85
2017-06-18T10:46:30.245Z,1019.86
2017-06-18T10:47:30.183Z,1019.86
2017-06-18T10:48:30.121Z,1019.88
2017-06-18T10:49:30.059Z,1019.88
2017-06-18T10:50:29.998Z,1019.91
2017-06-18T10:51:29.934Z,1019.88
2017-06-18T10:52:29.874Z,1019.88
2017-06-18T10:53:29.813Z,1019.85
2017-06-18T10:54:29.748Z,1019.85
2017-06-18T10:55:29.686Z,1019.86
2017-06-18T10:56:29.624Z,1019.81
2017-06-18T10:57:29.562Z,1019.86
2017-06-18T10:58:29.500Z,1019.87
2017-06-18T10:59:29.438Z,1019.86
2017-06-18T11:00:29.377Z,1019.84
2017-06-18T11:01:29.313Z,1019.84
2017-06-18T11:02:29.252Z,1019.86
2017-06-18T11:03:29.189Z,1019.87
2017-06-18T11:04:29.128Z,1019.81
2017-06-18T11:05:29.066Z,1019.8
2017-06-18T11:06:29.004Z,1019.8
2017-06-18T11:07:28.942Z,1019.75
2017-06-18T11:08:28.879Z,1019.75
2017-06-18T11:09:28.819Z,1019.75
2017-06-18T11:10:28.756Z,1019.68
2017-06-18T11:11:28.693Z,1019.67
2017-06-18T11:12:28.630Z,1019.67
2017-06-18T11:13:28.570Z,1019.69
2017-06-18T11:14:28.507Z,1019.62
2017-06-18T11:15:28.445Z,1019.59
2017-06-18T11:16:28.382Z,1019.64
2017-06-18T11:17:28.321Z,1019.65
2017-06-18T11:18:28.264Z,1019.72
2017-06-18T11:19:28.197Z,1019.71
2017-06-18T11:20:28.134Z,1019.63
2017-06-18T11:21:28.073Z,1019.71
2017-06-18T11:22:28.011Z,1019.69
2017-06-18T11:23:27.947Z,1019.71
2017-06-18T11:24:27.885Z,1019.61
2017-06-18T11:25:27.824Z,1019.62
2017-06-18T11:26:27.761Z,1019.61
2017-06-18T11:27:27.701Z,1019.62
2017-06-18T11:28:27.637Z,1019.54
2017-06-18T11:29:27.576Z,1019.57
2017-06-18T11:30:27.513Z,1019.58
2017-06-18T11:31:27.451Z,1019.55
2017-06-18T11:32:27.388Z,1019.57
2017-06-18T11:33:27.326Z,1019.57
2017-06-18T11:34:27.264Z,1019.57
2017-06-18T11:35:27.203Z,1019.6
2017-06-18T11:36:27.140Z,1019.61
2017-06-18T11:37:27.077Z,1019.6
2017-06-18T11:38:27.015Z,1019.55
2017-06-18T11:39:26.953Z,1019.6
2017-06-18T11:40:26.894Z,1019.56
2017-06-18T11:41:26.831Z,1019.55
2017-06-18T11:42:26.768Z,1019.58
2017-06-18T11:43:26.705Z,1019.55
2017-06-18T11:44:26.643Z,1019.52
2017-06-18T11:45:26.580Z,1019.46
2017-06-18T11:46:26.519Z,1019.5
2017-06-18T11:47:26.456Z,1019.48
2017-06-18T11:48:26.394Z,1019.44
2017-06-18T11:49:26.334Z,1019.43
2017-06-18T11:50:26.271Z,1019.41
2017-06-18T11:51:26.208Z,1019.4
2017-06-18T11:52:26.146Z,1019.35
2017-06-18T11:53:26.085Z,1019.37
2017-06-18T11:54:26.022Z,1019.42
2017-06-18T11:55:25.960Z,1019.44
2017-06-18T11:56:25.898Z,1019.41
2017-06-18T11:57:25.836Z,1019.42
2017-06-18T11:58:25.774Z,1019.44
2017-06-18T11:59:25.711Z,1019.42
2017-06-18T12:00:25.649Z,1019.41
2017-06-18T12:01:25.588Z,1019.43
2017-06-18T12:02:25.526Z,1019.42
2017-06-18T12:03:25.462Z,1019.41
2017-06-18T12:04:25.401Z,1019.39
2017-06-18T12:05:25.340Z,1019.38
2017-06-18T12:06:25.277Z,1019.39
2017-06-18T12:07:25.214Z,1019.41
2017-06-18T12:08:25.152Z,1019.39